createdAt,value
2019-01-13T00:01:56.939Z,2.70
2019-01-13T00:04:27.323Z,2.70
2019-01-13T00:06:57.696Z,2.70
2019-01-13T00:09:28.311Z,2.70
2019-01-13T00:11:58.892Z,2.70
2019-01-13T00:17:37.624Z,2.80
2019-01-13T00:20:08.143Z,2.80
2019-01-13T00:22:38.523Z,2.80
2019-01-13T00:25:09.188Z,2.80
2019-01-13T00:27:39.687Z,2.90
2019-01-13T00:30:19.231Z,2.90
2019-01-13T00:32:43.762Z,2.90
2019-01-13T00:35:14.297Z,2.90
2019-01-13T00:37:44.597Z,2.90
2019-01-13T00:40:15.563Z,3.00
2019-01-13T00:42:45.804Z,3.00
2019-01-13T00:45:17.031Z,3.00
2019-01-13T00:47:47.468Z,3.10
2019-01-13T00:50:17.676Z,3.10
2019-01-13T00:52:47.935Z,3.10
2019-01-13T00:55:18.344Z,3.10
2019-01-13T00:57:48.683Z,3.10
2019-01-13T01:00:26.390Z,3.10
2019-01-13T01:02:51.628Z,3.10
2019-01-13T01:05:22.279Z,3.10
2019-01-13T01:07:52.833Z,3.10
2019-01-13T01:10:23.189Z,3.10
2019-01-13T01:12:53.735Z,3.20
2019-01-13T01:15:24.064Z,3.10
2019-01-13T01:17:54.516Z,3.10
2019-01-13T01:20:24.832Z,3.20
2019-01-13T01:22:55.246Z,3.20
2019-01-13T01:25:25.688Z,3.20
2019-01-13T01:27:56.017Z,3.20
2019-01-13T01:30:33.242Z,3.20
2019-01-13T01:32:56.820Z,3.20
2019-01-13T01:35:27.138Z,3.10
2019-01-13T01:37:57.555Z,3.10
2019-01-13T01:40:27.855Z,3.20
2019-01-13T01:42:58.261Z,3.20
2019-01-13T01:45:28.412Z,3.10
2019-01-13T01:47:58.850Z,3.10
2019-01-13T01:50:29.055Z,3.20
2019-01-13T01:52:59.398Z,3.20
2019-01-13T01:55:29.676Z,3.10
2019-01-13T01:57:59.980Z,3.10
2019-01-13T02:00:30.346Z,3.10
2019-01-13T02:03:00.591Z,3.20
2019-01-13T02:05:30.993Z,3.20
2019-01-13T02:08:01.255Z,3.20
2019-01-13T02:10:31.735Z,3.20
2019-01-13T02:13:01.899Z,3.20
2019-01-13T02:15:32.211Z,3.20
2019-01-13T02:18:02.655Z,3.20
2019-01-13T02:20:33.025Z,3.20
2019-01-13T02:23:03.268Z,3.20
2019-01-13T02:25:33.659Z,3.20
2019-01-13T02:28:04.043Z,3.30
2019-01-13T02:30:34.404Z,3.30
2019-01-13T02:33:04.800Z,3.30
2019-01-13T02:35:35.141Z,3.30
2019-01-13T02:38:05.534Z,3.30
2019-01-13T02:40:36.334Z,3.30
2019-01-13T02:43:06.640Z,3.30
2019-01-13T02:45:37.004Z,3.30
2019-01-13T02:48:07.150Z,3.30
2019-01-13T02:50:37.813Z,3.40
2019-01-13T02:53:08.180Z,3.40
2019-01-13T02:55:38.506Z,3.40
2019-01-13T02:58:08.966Z,3.40
2019-01-13T03:03:09.240Z,3.40
2019-01-13T03:05:39.767Z,3.40
2019-01-13T03:08:10.146Z,3.40
2019-01-13T03:10:40.471Z,3.40
2019-01-13T03:13:10.905Z,3.40
2019-01-13T03:15:41.388Z,3.40
2019-01-13T03:18:12.053Z,3.40
2019-01-13T03:20:42.599Z,3.40
2019-01-13T03:23:12.884Z,3.40
2019-01-13T03:25:43.361Z,3.40
2019-01-13T03:30:43.313Z,3.40
2019-01-13T03:33:13.664Z,3.40
2019-01-13T03:35:44.069Z,3.40
2019-01-13T03:38:14.547Z,3.40
2019-01-13T03:40:44.979Z,3.40
2019-01-13T03:43:15.291Z,3.40
2019-01-13T03:45:45.615Z,3.40
2019-01-13T03:48:15.996Z,3.40
2019-01-13T03:50:46.231Z,3.40
2019-01-13T03:53:16.720Z,3.40
2019-01-13T03:55:47.078Z,3.40
2019-01-13T03:58:17.348Z,3.50
2019-01-13T04:00:47.848Z,3.40
2019-01-13T04:03:18.007Z,3.40
2019-01-13T04:05:48.683Z,3.40
2019-01-13T04:08:19.020Z,3.40
2019-01-13T04:10:49.410Z,3.40
2019-01-13T04:13:19.676Z,3.40
2019-01-13T04:15:57.985Z,3.30
2019-01-13T04:18:28.503Z,3.30
2019-01-13T04:20:58.799Z,3.30
2019-01-13T04:23:29.308Z,3.30
2019-01-13T04:25:59.620Z,3.20
2019-01-13T04:28:29.902Z,3.20
2019-01-13T04:31:00.227Z,3.20
2019-01-13T04:33:30.641Z,3.20
2019-01-13T04:36:00.828Z,3.20
2019-01-13T04:38:31.142Z,3.20
2019-01-13T04:41:01.448Z,3.20
2019-01-13T04:43:31.756Z,3.20
2019-01-13T04:46:02.138Z,3.20
2019-01-13T04:48:32.416Z,3.20
2019-01-13T04:51:02.780Z,3.20
2019-01-13T04:53:33.087Z,3.20
2019-01-13T04:56:03.531Z,3.20
2019-01-13T04:58:33.785Z,3.20
2019-01-13T05:01:04.276Z,3.30
2019-01-13T05:03:34.687Z,3.30
2019-01-13T05:06:05.163Z,3.30
2019-01-13T05:08:35.394Z,3.30
2019-01-13T05:11:05.695Z,3.40
2019-01-13T05:13:35.943Z,3.40
2019-01-13T05:16:06.327Z,3.40
2019-01-13T05:21:06.055Z,3.40
2019-01-13T05:23:36.392Z,3.40
2019-01-13T05:26:06.781Z,3.40
2019-01-13T05:28:37.051Z,3.40
2019-01-13T05:31:07.424Z,3.40
2019-01-13T05:33:37.864Z,3.40
2019-01-13T05:36:08.331Z,3.40
2019-01-13T05:38:38.596Z,3.40
2019-01-13T05:41:09.184Z,3.40
2019-01-13T05:43:39.419Z,3.30
2019-01-13T05:46:09.690Z,3.30
2019-01-13T05:48:39.946Z,3.30
2019-01-13T05:51:10.847Z,3.40
2019-01-13T05:53:41.199Z,3.40
2019-01-13T05:56:11.556Z,3.40
2019-01-13T05:58:41.964Z,3.40
2019-01-13T06:01:12.239Z,3.40
2019-01-13T06:03:42.524Z,3.40
2019-01-13T06:06:12.980Z,3.40
2019-01-13T06:08:43.223Z,3.40
2019-01-13T06:11:13.523Z,3.40
2019-01-13T06:13:43.897Z,3.40
2019-01-13T06:16:14.232Z,3.40
2019-01-13T06:18:44.603Z,3.40
2019-01-13T06:21:14.992Z,3.40
2019-01-13T06:23:45.202Z,3.50
2019-01-13T06:26:15.508Z,3.50
2019-01-13T06:28:46.127Z,3.40
2019-01-13T06:31:16.453Z,3.40
2019-01-13T06:33:46.655Z,3.50
2019-01-13T06:36:16.975Z,3.40
2019-01-13T06:38:47.343Z,3.40
2019-01-13T06:41:17.574Z,3.40
2019-01-13T06:43:47.811Z,3.40
2019-01-13T06:46:18.042Z,3.40
2019-01-13T06:48:48.187Z,3.40
2019-01-13T06:51:18.728Z,3.40
2019-01-13T06:53:49.036Z,3.40
2019-01-13T06:56:19.745Z,3.30
2019-01-13T06:58:49.924Z,3.30
2019-01-13T07:01:20.212Z,3.30
2019-01-13T07:03:51.036Z,3.30
2019-01-13T07:06:21.496Z,3.20
2019-01-13T07:08:51.911Z,3.30
2019-01-13T07:11:22.219Z,3.30
2019-01-13T07:13:52.651Z,3.30
2019-01-13T07:16:23.011Z,3.30
2019-01-13T07:18:53.492Z,3.30
2019-01-13T07:21:23.904Z,3.30
2019-01-13T07:23:54.146Z,3.30
2019-01-13T07:26:24.544Z,3.40
2019-01-13T07:28:54.753Z,3.40
2019-01-13T07:31:25.027Z,3.40
2019-01-13T07:33:55.364Z,3.40
2019-01-13T07:36:25.692Z,3.40
2019-01-13T07:38:56.371Z,3.40
2019-01-13T07:41:26.751Z,3.40
2019-01-13T07:46:27.000Z,3.40
2019-01-13T07:48:57.332Z,3.40
2019-01-13T07:51:27.780Z,3.50
2019-01-13T07:53:58.039Z,3.50
2019-01-13T07:56:28.487Z,3.50
2019-01-13T07:58:58.803Z,3.50
2019-01-13T08:01:29.223Z,3.50
2019-01-13T08:03:59.698Z,3.50
2019-01-13T08:06:30.032Z,3.50
2019-01-13T08:09:00.186Z,3.50
2019-01-13T08:11:30.543Z,3.60
2019-01-13T08:14:00.875Z,3.60
2019-01-13T08:16:31.228Z,3.60
2019-01-13T08:19:01.480Z,3.60
2019-01-13T08:21:31.932Z,3.70
2019-01-13T08:24:02.131Z,3.70
2019-01-13T08:26:32.511Z,3.70
2019-01-13T08:29:02.680Z,3.70
2019-01-13T08:31:33.075Z,3.70
2019-01-13T08:34:03.424Z,3.70
2019-01-13T08:36:33.791Z,3.70
2019-01-13T08:39:04.748Z,3.70
2019-01-13T08:41:35.023Z,3.70
2019-01-13T08:44:05.812Z,3.80
2019-01-13T08:46:36.167Z,3.80
2019-01-13T08:49:06.496Z,3.80
2019-01-13T08:51:37.124Z,3.80
2019-01-13T08:54:07.556Z,3.80
2019-01-13T08:56:37.956Z,3.90
2019-01-13T08:59:08.408Z,3.90
2019-01-13T09:01:38.764Z,3.90
2019-01-13T09:04:09.176Z,4.00
2019-01-13T09:06:39.428Z,4.00
2019-01-13T09:09:10.086Z,4.00
2019-01-13T09:11:40.563Z,4.00
2019-01-13T09:14:10.874Z,4.10
2019-01-13T09:16:41.285Z,4.10
2019-01-13T09:19:11.513Z,4.10
2019-01-13T09:21:41.960Z,4.10
2019-01-13T09:24:12.368Z,4.10
2019-01-13T09:26:42.737Z,4.10
2019-01-13T09:29:13.054Z,4.10
2019-01-13T09:31:43.472Z,4.10
2019-01-13T09:34:13.879Z,4.10
2019-01-13T09:36:44.247Z,4.20
2019-01-13T09:39:14.802Z,4.20
2019-01-13T09:44:14.652Z,4.10
2019-01-13T09:46:44.975Z,4.10
2019-01-13T09:49:15.291Z,4.10
2019-01-13T09:51:45.582Z,4.00
2019-01-13T09:54:15.899Z,4.10
2019-01-13T09:56:46.279Z,4.10
2019-01-13T09:59:16.419Z,4.10
2019-01-13T10:04:16.269Z,4.20
2019-01-13T10:06:46.515Z,4.20
2019-01-13T10:09:16.775Z,4.20
2019-01-13T10:11:46.908Z,4.20
2019-01-13T10:16:46.699Z,4.20
2019-01-13T10:19:17.055Z,4.20
2019-01-13T10:21:47.335Z,4.20
2019-01-13T10:24:17.534Z,4.20
2019-01-13T10:26:48.155Z,4.30
2019-01-13T10:29:18.446Z,4.30
2019-01-13T10:31:48.788Z,4.30
2019-01-13T10:34:19.133Z,4.30
2019-01-13T10:36:49.476Z,4.30
2019-01-13T10:39:19.744Z,4.20
2019-01-13T10:41:50.151Z,4.20
2019-01-13T10:44:20.431Z,4.20
2019-01-13T10:46:50.779Z,4.20
2019-01-13T10:49:20.990Z,4.20
2019-01-13T10:51:51.179Z,4.20
2019-01-13T10:56:50.892Z,4.20
2019-01-13T10:59:21.211Z,4.20
2019-01-13T11:01:51.532Z,4.30
2019-01-13T11:04:21.924Z,4.30
2019-01-13T11:06:52.002Z,4.30
2019-01-13T11:09:22.283Z,4.30
2019-01-13T11:11:52.504Z,4.20
2019-01-13T11:14:22.827Z,4.20
2019-01-13T11:16:53.151Z,4.20
2019-01-13T11:19:23.519Z,4.30
2019-01-13T11:21:56.081Z,4.30
2019-01-13T11:26:55.983Z,4.30
2019-01-13T11:29:32.548Z,4.30
2019-01-13T11:31:56.716Z,4.30
2019-01-13T11:34:27.119Z,4.30
2019-01-13T11:36:57.303Z,4.40
2019-01-13T11:41:57.117Z,4.50
2019-01-13T11:44:27.431Z,4.50
2019-01-13T11:46:57.766Z,4.60
2019-01-13T11:49:27.932Z,4.60
2019-01-13T11:51:58.506Z,4.60
2019-01-13T11:54:28.625Z,4.70
2019-01-13T11:56:58.963Z,4.70
2019-01-13T11:59:29.270Z,4.80
2019-01-13T12:01:59.539Z,4.80
2019-01-13T12:04:29.778Z,4.80
2019-01-13T12:07:00.180Z,4.80
2019-01-13T12:12:00.029Z,4.90
2019-01-13T12:14:30.315Z,4.80
2019-01-13T12:17:00.664Z,4.80
2019-01-13T12:19:30.868Z,4.80
2019-01-13T12:22:01.234Z,4.80
2019-01-13T12:24:31.471Z,4.90
2019-01-13T12:27:01.780Z,4.90
2019-01-13T12:29:31.995Z,4.90
2019-01-13T12:45:02.612Z,4.80
2019-01-13T12:47:32.691Z,4.90
2019-01-13T12:50:03.148Z,5.00
2019-01-13T12:52:33.788Z,5.00
2019-01-13T12:55:04.303Z,4.90
2019-01-13T12:57:34.679Z,4.90
2019-01-13T13:00:05.653Z,4.90
2019-01-13T13:02:35.933Z,4.90
2019-01-13T13:05:07.299Z,4.90
2019-01-13T13:07:37.556Z,5.00
2019-01-13T13:10:12.660Z,4.90
2019-01-13T13:12:43.000Z,4.90
2019-01-13T13:15:13.392Z,4.90
2019-01-13T13:17:43.787Z,4.90
2019-01-13T13:20:14.494Z,4.90
2019-01-13T13:22:44.971Z,4.90
2019-01-13T13:25:15.523Z,4.90
2019-01-13T13:27:46.172Z,4.90
2019-01-13T13:30:20.207Z,4.90
2019-01-13T13:32:50.600Z,4.90
2019-01-13T13:35:21.041Z,4.90
2019-01-13T13:37:51.292Z,4.90
2019-01-13T13:40:22.767Z,4.90
2019-01-13T13:42:53.272Z,4.80
2019-01-13T13:45:23.647Z,4.90
2019-01-13T13:47:53.967Z,4.80
2019-01-13T13:50:25.481Z,4.80
2019-01-13T13:52:55.836Z,4.70
2019-01-13T13:55:26.190Z,4.70
2019-01-13T14:00:28.227Z,4.80
2019-01-13T14:02:58.535Z,4.70
2019-01-13T14:05:29.095Z,4.60
2019-01-13T14:07:59.363Z,4.60
2019-01-13T14:13:00.503Z,4.60
2019-01-13T14:15:30.865Z,4.50
2019-01-13T14:18:01.099Z,4.50
2019-01-13T14:20:32.268Z,4.50
2019-01-13T14:23:02.670Z,4.50
2019-01-13T14:25:33.002Z,4.50
2019-01-13T14:28:03.243Z,4.40
2019-01-13T14:30:33.692Z,4.40
2019-01-13T14:33:04.150Z,4.40
2019-01-13T14:35:34.592Z,4.40
2019-01-13T14:38:04.756Z,4.30
2019-01-13T14:40:35.120Z,4.30
2019-01-13T14:43:05.768Z,4.30
2019-01-13T14:45:36.031Z,4.30
2019-01-13T14:48:06.428Z,4.20
2019-01-13T14:50:36.907Z,4.20
2019-01-13T14:53:08.502Z,4.20
2019-01-13T14:55:39.111Z,4.10
2019-01-13T14:58:09.507Z,4.10
2019-01-13T15:00:39.812Z,4.10
2019-01-13T15:03:10.036Z,4.10
2019-01-13T15:05:40.360Z,4.00
2019-01-13T15:08:10.620Z,4.00
2019-01-13T15:10:40.899Z,3.90
2019-01-13T15:13:11.299Z,3.90
2019-01-13T15:15:41.548Z,3.90
2019-01-13T15:18:11.933Z,3.90
2019-01-13T15:20:42.331Z,3.80
2019-01-13T15:23:12.743Z,3.80
2019-01-13T15:25:43.111Z,3.80
2019-01-13T15:28:13.423Z,3.80
2019-01-13T15:30:43.711Z,3.70
2019-01-13T15:33:14.011Z,3.70
2019-01-13T15:35:44.396Z,3.70
2019-01-13T15:38:14.743Z,3.70
2019-01-13T15:40:44.886Z,3.70
2019-01-13T15:43:15.087Z,3.70
2019-01-13T15:45:45.498Z,3.70
2019-01-13T15:48:15.807Z,3.70
2019-01-13T15:53:15.650Z,3.70
2019-01-13T15:55:45.952Z,3.70
2019-01-13T15:58:16.312Z,3.70
2019-01-13T16:00:46.682Z,3.60
2019-01-13T16:03:17.063Z,3.60
2019-01-13T16:05:47.467Z,3.60
2019-01-13T16:08:17.897Z,3.60
2019-01-13T16:10:48.071Z,3.70
2019-01-13T16:13:18.088Z,3.70
2019-01-13T16:15:48.466Z,3.60
2019-01-13T16:18:18.574Z,3.60
2019-01-13T16:20:48.928Z,3.70
2019-01-13T16:23:19.125Z,3.60
2019-01-13T16:25:49.433Z,3.60
2019-01-13T16:28:19.627Z,3.60
2019-01-13T16:30:49.977Z,3.70
2019-01-13T16:33:20.180Z,3.60
2019-01-13T16:35:50.619Z,3.60
2019-01-13T16:38:21.149Z,3.60
2019-01-13T16:40:51.439Z,3.60
2019-01-13T16:43:21.508Z,3.60
2019-01-13T16:45:51.783Z,3.60
2019-01-13T16:48:22.212Z,3.60
2019-01-13T16:50:53.036Z,3.60
2019-01-13T16:53:23.285Z,3.60
2019-01-13T16:55:53.617Z,3.80
2019-01-13T16:58:24.125Z,3.80
2019-01-13T17:00:54.511Z,3.80
2019-01-13T17:03:24.725Z,3.80
2019-01-13T17:05:55.030Z,3.80
2019-01-13T17:08:25.261Z,3.80
2019-01-13T17:10:55.703Z,3.80
2019-01-13T17:13:25.977Z,3.90
2019-01-13T17:15:56.459Z,3.90
2019-01-13T17:18:26.669Z,3.90
2019-01-13T17:20:56.894Z,4.00
2019-01-13T17:23:27.099Z,3.90
2019-01-13T17:25:57.316Z,3.90
2019-01-13T17:28:27.799Z,3.90
2019-01-13T17:30:58.211Z,3.80
2019-01-13T17:33:28.617Z,3.80
2019-01-13T17:35:58.783Z,3.80
2019-01-13T17:38:29.261Z,3.80
2019-01-13T17:40:59.639Z,3.80
2019-01-13T17:43:30.006Z,3.80
2019-01-13T17:46:00.348Z,3.80
2019-01-13T17:48:30.592Z,3.80
2019-01-13T17:51:00.819Z,3.70
2019-01-13T17:53:31.071Z,3.70
2019-01-13T17:56:01.781Z,3.70
2019-01-13T17:58:32.084Z,3.70
2019-01-13T18:01:09.400Z,3.70
2019-01-13T18:03:42.947Z,3.80
2019-01-13T18:06:23.059Z,3.90
2019-01-13T18:08:53.280Z,3.90
2019-01-13T18:13:53.562Z,4.00
2019-01-13T18:16:23.936Z,4.10
2019-01-13T18:18:54.372Z,4.20
2019-01-13T18:21:24.766Z,4.40
2019-01-13T18:23:55.105Z,4.70
2019-01-13T18:26:25.540Z,4.80
2019-01-13T18:28:55.786Z,4.90
2019-01-13T18:31:26.239Z,4.90
2019-01-13T18:36:26.048Z,4.90
2019-01-13T18:38:56.348Z,5.00
2019-01-13T18:41:26.948Z,5.00
2019-01-13T18:43:57.271Z,5.10
2019-01-13T18:46:27.561Z,5.10
2019-01-13T18:51:27.428Z,5.10
2019-01-13T18:53:57.731Z,5.10
2019-01-13T18:56:28.364Z,5.10
2019-01-13T18:58:58.805Z,5.10
2019-01-13T19:01:29.192Z,5.20
2019-01-13T19:03:59.438Z,5.10
2019-01-13T19:06:29.751Z,5.10
2019-01-13T19:09:00.512Z,5.10
2019-01-13T19:11:33.820Z,5.10
2019-01-13T19:14:21.836Z,5.10
2019-01-13T19:16:56.983Z,5.10
2019-01-13T19:19:27.278Z,5.20
2019-01-13T19:21:57.550Z,5.30
2019-01-13T19:24:28.053Z,5.20
2019-01-13T19:26:58.314Z,5.20
2019-01-13T19:29:28.740Z,5.30
2019-01-13T19:31:59.183Z,5.30
2019-01-13T19:34:29.645Z,5.30
2019-01-13T19:37:00.070Z,5.30
2019-01-13T19:39:30.436Z,5.40
2019-01-13T19:42:01.023Z,5.40
2019-01-13T19:44:31.350Z,5.40
2019-01-13T19:47:01.751Z,5.40
2019-01-13T19:49:32.453Z,5.40
2019-01-13T19:52:02.971Z,5.40
2019-01-13T19:54:33.646Z,5.40
2019-01-13T19:57:03.936Z,5.50
2019-01-13T19:59:34.419Z,5.60
2019-01-13T20:02:05.032Z,5.60
2019-01-13T20:04:35.444Z,5.60
2019-01-13T20:07:05.933Z,5.60
2019-01-13T20:09:36.343Z,5.60
2019-01-13T20:12:06.879Z,5.60
2019-01-13T20:14:37.460Z,5.60
2019-01-13T20:17:08.049Z,5.70
2019-01-13T20:19:38.420Z,5.70
2019-01-13T20:22:09.156Z,5.70
2019-01-13T20:24:39.497Z,5.80
2019-01-13T20:27:09.679Z,5.80
2019-01-13T20:29:39.986Z,5.80
2019-01-13T20:32:10.592Z,5.80
2019-01-13T20:34:41.036Z,5.70
2019-01-13T20:37:11.433Z,5.80
2019-01-13T20:39:42.743Z,5.80
2019-01-13T20:42:13.206Z,5.70
2019-01-13T20:44:43.686Z,5.70
2019-01-13T20:47:14.072Z,5.70
2019-01-13T20:49:44.383Z,5.70
2019-01-13T20:52:15.191Z,5.50
2019-01-13T20:54:45.497Z,5.30
2019-01-13T20:57:15.969Z,4.90
2019-01-13T20:59:46.243Z,4.70
2019-01-13T21:02:16.617Z,4.50
2019-01-13T21:04:46.960Z,4.40
2019-01-13T21:07:17.449Z,4.40
2019-01-13T21:09:47.849Z,4.30
2019-01-13T21:12:18.294Z,4.30
2019-01-13T21:14:48.738Z,4.30
2019-01-13T21:17:19.195Z,4.30
2019-01-13T21:19:49.499Z,4.30
2019-01-13T21:22:20.009Z,4.30
2019-01-13T21:24:50.415Z,4.50
2019-01-13T21:27:20.700Z,4.50
2019-01-13T21:29:50.836Z,4.60
2019-01-13T21:32:20.887Z,4.70
2019-01-13T21:34:51.342Z,4.60
2019-01-13T21:37:21.744Z,4.60
2019-01-13T21:39:52.148Z,4.70
2019-01-13T21:42:22.527Z,4.80
2019-01-13T21:44:52.785Z,4.70
2019-01-13T21:47:23.348Z,4.60
2019-01-13T21:49:53.750Z,4.50
2019-01-13T21:52:24.637Z,4.40
2019-01-13T21:54:54.576Z,4.30
2019-01-13T21:57:24.669Z,4.20
2019-01-13T21:59:54.740Z,4.20
2019-01-13T22:02:24.917Z,4.20
2019-01-13T22:04:54.963Z,4.10
2019-01-13T22:07:25.040Z,4.10
2019-01-13T22:09:55.431Z,4.10
2019-01-13T22:12:25.590Z,4.10
2019-01-13T22:14:55.621Z,4.10
2019-01-13T22:17:25.929Z,4.10
2019-01-13T22:19:56.315Z,4.10
2019-01-13T22:22:26.681Z,4.20
2019-01-13T22:24:56.924Z,4.20
2019-01-13T22:27:27.322Z,4.20
2019-01-13T22:29:57.547Z,4.20
2019-01-13T22:32:28.056Z,4.20
2019-01-13T22:34:58.136Z,4.20
2019-01-13T22:37:28.163Z,4.30
2019-01-13T22:39:58.280Z,4.30
2019-01-13T22:42:28.712Z,4.30
2019-01-13T22:44:59.143Z,4.30
2019-01-13T22:47:29.409Z,4.30
2019-01-13T22:49:59.874Z,4.30
2019-01-13T22:52:30.494Z,4.30
2019-01-13T22:55:00.892Z,4.30
2019-01-13T22:57:31.327Z,4.30
2019-01-13T23:00:01.760Z,4.30
2019-01-13T23:02:32.141Z,4.40
2019-01-13T23:05:02.592Z,4.30
2019-01-13T23:07:33.008Z,4.40
2019-01-13T23:10:03.503Z,4.40
2019-01-13T23:12:33.884Z,4.40
2019-01-13T23:15:04.575Z,4.50
2019-01-13T23:20:05.343Z,4.50
2019-01-13T23:22:35.795Z,4.50
2019-01-13T23:25:06.326Z,4.60
2019-01-13T23:27:36.740Z,4.60
2019-01-13T23:30:07.656Z,4.50
2019-01-13T23:32:38.024Z,4.50
2019-01-13T23:35:08.471Z,4.50
2019-01-13T23:37:38.732Z,4.50
2019-01-13T23:40:09.288Z,4.50
2019-01-13T23:42:39.588Z,4.50
2019-01-13T23:45:09.989Z,4.50
2019-01-13T23:47:40.294Z,4.50
2019-01-13T23:50:10.700Z,4.60
2019-01-13T23:52:41.212Z,4.60
2019-01-13T23:55:11.700Z,4.60
2019-01-13T23:57:41.983Z,4.60
